Time;durP1;ratioP1;P1;durP2;ratioP2;P2;SDS_P1;SDS_P2;PMS_P1;PMS_P2;Temp;Humidity;BMP_temperature;BMP_pressure;BME280_temperature;BME280_humidity;BME280_pressure;Samples;Min_cycle;Max_cycle;Signal;HPM_P1;HPM_P2
2021/11/12 00:13:50;;;;;;;63.83;30.70;;;;;;;4.06;82.27;101999.47;5088915;28;20047;-67
2021/11/12 00:16:24;;;;;;;71.65;33.47;;;;;;;4.11;82.26;101999.22;5088865;28;20040;-67
2021/11/12 00:18:51;;;;;;;77.80;31.55;;;;;;;4.11;82.19;102012.34;5089219;28;20081;-67
2021/11/12 00:21:19;;;;;;;79.38;31.70;;;;;;;4.01;82.66;102004.97;5087661;28;20094;-67
2021/11/12 00:23:46;;;;;;;68.63;31.05;;;;;;;3.99;82.64;101998.09;5060221;28;20501;-67
2021/11/12 00:26:12;;;;;;;70.85;34.28;;;;;;;3.91;82.56;101995.88;5075228;28;20049;-67
2021/11/12 00:28:50;;;;;;;65.93;32.97;;;;;;;3.94;82.35;101990.44;5074433;28;20044;-67
2021/11/12 00:31:27;;;;;;;72.30;31.52;;;;;;;3.93;82.37;101985.28;5073213;28;20036;-67
2021/11/12 00:36:58;;;;;;;63.17;30.95;;;;;;;3.88;82.34;101984.69;5074064;28;20493;-67
2021/11/12 00:45:00;;;;;;;73.13;34.22;;;;;;;3.73;82.85;101984.56;5074893;28;20506;-67
2021/11/12 00:47:40;;;;;;;68.90;32.33;;;;;;;3.74;82.83;101988.03;5073734;28;20040;-67
2021/11/12 00:50:28;;;;;;;67.03;32.97;;;;;;;3.75;83.07;101998.44;5075314;28;20080;-67
2021/11/12 00:55:36;;;;;;;72.32;32.55;;;;;;;3.79;82.47;101999.97;5090171;27;20381;-67
2021/11/12 00:58:04;;;;;;;70.95;33.35;;;;;;;3.88;82.33;101997.81;5089057;28;20052;-66
2021/11/12 01:00:31;;;;;;;63.80;31.98;;;;;;;3.81;82.73;101992.03;5090059;28;20036;-67
2021/11/12 01:02:57;;;;;;;66.57;32.05;;;;;;;3.74;82.50;101993.28;5076693;28;20524;-66
2021/11/12 01:05:25;;;;;;;68.55;31.17;;;;;;;3.68;82.52;101989.19;5086650;28;20048;-66
2021/11/12 01:07:52;;;;;;;66.07;32.25;;;;;;;3.68;82.24;101978.69;5089016;28;20144;-67
2021/11/12 01:10:19;;;;;;;72.00;32.97;;;;;;;3.64;82.58;101974.53;5088823;28;20044;-67
2021/11/12 01:12:48;;;;;;;62.42;32.22;;;;;;;3.62;83.00;101971.13;5072315;28;20055;-67
2021/11/12 01:15:17;;;;;;;71.32;33.42;;;;;;;3.62;83.11;101963.25;5089467;28;20047;-67
2021/11/12 01:17:44;;;;;;;64.93;31.58;;;;;;;3.57;83.46;101965.28;5105702;28;20473;-66
2021/11/12 01:20:14;;;;;;;67.15;31.45;;;;;;;3.57;83.32;101965.28;5072207;28;20166;-67
2021/11/12 01:22:42;;;;;;;65.07;33.33;;;;;;;3.56;83.47;101968.81;5089589;28;20044;-66
2021/11/12 01:25:10;;;;;;;67.93;32.10;;;;;;;3.59;83.01;101972.13;5088623;28;20099;-67
2021/11/12 01:27:39;;;;;;;67.90;32.88;;;;;;;3.60;83.26;101971.22;5089573;28;20401;-66
2021/11/12 01:30:08;;;;;;;71.38;31.70;;;;;;;3.52;83.28;101976.00;5089769;28;20041;-67
2021/11/12 01:32:35;;;;;;;64.82;30.20;;;;;;;3.52;83.17;101977.78;5089244;28;20036;-67
2021/11/12 01:35:04;;;;;;;62.53;30.88;;;;;;;3.47;83.33;101970.13;5078799;28;20382;-66
2021/11/12 01:37:33;;;;;;;65.32;31.83;;;;;;;3.37;83.20;101967.13;5038199;28;20044;-66
2021/11/12 01:40:05;;;;;;;72.57;32.08;;;;;;;3.41;83.16;101968.66;5084797;28;20045;-66
2021/11/12 01:42:58;;;;;;;66.93;31.45;;;;;;;3.38;83.28;101966.19;5068757;28;20055;-66
2021/11/12 01:45:35;;;;;;;66.05;31.63;;;;;;;3.38;83.27;101958.31;5068729;28;20032;-66
2021/11/12 01:53:39;;;;;;;70.53;32.72;;;;;;;3.38;83.71;101941.75;5101020;28;20053;-67
2021/11/12 02:01:48;;;;;;;67.20;32.55;;;;;;;3.27;83.68;101923.94;5089789;27;20377;-67
2021/11/12 02:04:17;;;;;;;64.22;32.20;;;;;;;3.23;83.90;101925.00;5087121;28;20052;-67
2021/11/12 02:06:45;;;;;;;59.78;31.63;;;;;;;3.22;83.76;101929.41;5106349;28;20101;-67
2021/11/12 02:09:17;;;;;;;80.07;33.63;;;;;;;3.24;84.10;101921.47;5089309;28;20048;-66
2021/11/12 02:11:46;;;;;;;63.45;31.90;;;;;;;3.24;83.49;101921.47;5090056;28;20457;-66
2021/11/12 02:14:15;;;;;;;57.70;31.02;;;;;;;3.19;84.01;101911.22;5089664;28;20140;-67
2021/11/12 02:16:55;;;;;;;76.70;31.27;;;;;;;3.18;83.98;101922.59;5088924;28;20053;-67
2021/11/12 02:19:23;;;;;;;72.75;30.25;;;;;;;3.19;84.11;101911.22;5089968;28;20515;-66
2021/11/12 02:22:09;;;;;;;61.70;30.98;;;;;;;3.19;83.95;101910.38;5084152;28;20044;-67
2021/11/12 02:24:40;;;;;;;64.43;30.38;;;;;;;3.23;83.37;101906.66;5082834;28;20072;-67
2021/11/12 02:27:13;;;;;;;60.65;30.10;;;;;;;3.10;83.11;101889.84;5089638;28;20044;-66
2021/11/12 02:29:46;;;;;;;66.78;30.50;;;;;;;3.10;83.49;101893.31;5088630;28;20037;-66
2021/11/12 02:32:17;;;;;;;67.75;30.00;;;;;;;3.11;83.47;101892.41;5068118;28;20052;-66
2021/11/12 02:34:46;;;;;;;61.20;30.02;;;;;;;3.10;83.57;101884.63;5101851;28;20102;-67
2021/11/12 02:37:12;;;;;;;59.88;29.77;;;;;;;3.08;83.71;101887.31;5067488;28;20102;-67
2021/11/12 02:39:41;;;;;;;61.63;30.05;;;;;;;3.03;83.98;101879.66;5068964;28;20048;-67
2021/11/12 02:42:08;;;;;;;56.70;29.40;;;;;;;3.04;84.18;101877.91;5068935;28;20041;-67
2021/11/12 02:44:35;;;;;;;63.20;31.77;;;;;;;3.05;84.13;101874.34;5069515;28;20041;-66
2021/11/12 02:47:03;;;;;;;63.35;30.13;;;;;;;3.03;83.97;101877.03;5069069;28;20103;-67
2021/11/12 02:49:30;;;;;;;63.35;30.50;;;;;;;2.97;84.10;101869.50;5068752;28;20048;-66
2021/11/12 02:51:56;;;;;;;60.92;29.77;;;;;;;2.96;84.04;101872.19;5068965;28;20041;-67
2021/11/12 02:54:25;;;;;;;53.75;29.27;;;;;;;3.06;83.84;101871.66;5078749;28;20468;-66
2021/11/12 02:56:56;;;;;;;59.95;30.30;;;;;;;2.89;84.27;101874.25;5089074;28;20133;-66
2021/11/12 02:59:23;;;;;;;58.17;27.90;;;;;;;2.92;84.01;101871.50;5088928;28;20044;-67
2021/11/12 03:01:49;;;;;;;53.72;27.65;;;;;;;2.78;84.30;101866.94;5089140;28;20036;-66
2021/11/12 03:04:18;;;;;;;62.00;28.17;;;;;;;2.87;84.40;101866.50;5086986;28;20044;-66
2021/11/12 03:06:45;;;;;;;57.08;28.42;;;;;;;3.00;83.50;101858.00;5087808;28;20558;-66
2021/11/12 03:09:12;;;;;;;55.92;27.02;;;;;;;2.95;83.65;101847.75;5087899;28;20048;-66
2021/11/12 03:11:42;;;;;;;55.08;25.85;;;;;;;2.84;84.04;101855.31;5072388;28;20131;-66
2021/11/12 03:14:11;;;;;;;51.17;27.48;;;;;;;2.83;84.16;101864.09;5075502;28;20044;-67
2021/11/12 03:16:39;;;;;;;52.88;27.13;;;;;;;2.79;83.81;101852.06;5073950;28;20094;-66
2021/11/12 03:19:09;;;;;;;51.42;26.40;;;;;;;2.87;83.66;101845.53;5075281;28;20048;-66
2021/11/12 03:21:38;;;;;;;53.00;27.42;;;;;;;2.80;84.10;101836.28;5075132;28;20507;-66
2021/11/12 03:24:10;;;;;;;54.95;27.60;;;;;;;2.82;84.23;101833.56;5073646;28;20394;-66
2021/11/12 04:21:52;;;;;;;53.13;21.63;;;;;;;3.13;86.67;101847.72;5089986;28;20137;-66
2021/11/12 05:44:41;;;;;;;36.78;15.95;;;;;;;3.91;87.98;101762.22;5067848;28;20132;-66
2021/11/12 05:49:43;;;;;;;41.75;18.35;;;;;;;3.95;88.31;101755.03;5069330;28;20493;-66
2021/11/12 05:50:37;;;;;;;44.53;18.35;;;;;;;3.91;88.31;101756.97;5069191;28;20072;-66
2021/11/12 05:55:27;;;;;;;44.83;18.88;;;;;;;3.84;88.70;101732.84;5069087;28;20052;-67
2021/11/12 05:57:56;;;;;;;47.28;19.88;;;;;;;4.03;88.53;101742.28;5067789;28;20102;-65
2021/11/12 06:00:23;;;;;;;48.63;20.67;;;;;;;4.01;88.31;101736.28;5051394;28;20048;-66
2021/11/12 06:02:50;;;;;;;51.85;21.10;;;;;;;4.12;87.56;101714.66;5086885;28;20039;-65
2021/11/12 06:05:18;;;;;;;49.08;21.38;;;;;;;4.16;87.82;101709.13;5069418;28;20036;-65
2021/11/12 06:07:47;;;;;;;49.28;22.55;;;;;;;4.22;87.35;101719.31;5089130;28;20044;-66
2021/11/12 06:10:17;;;;;;;45.70;22.17;;;;;;;4.26;87.26;101711.22;5089338;28;20500;-65
2021/11/12 06:12:45;;;;;;;49.53;22.67;;;;;;;4.33;87.20;101702.06;5088638;28;20049;-65
2021/11/12 06:15:11;;;;;;;50.03;23.70;;;;;;;4.22;87.69;101700.06;5087232;28;20512;-67
2021/11/12 06:17:38;;;;;;;43.97;22.98;;;;;;;4.19;87.57;101695.00;5082822;28;20036;-67
2021/11/12 06:20:06;;;;;;;49.20;23.65;;;;;;;4.22;87.63;101695.66;5050683;28;20106;-66
2021/11/12 06:22:33;;;;;;;45.95;23.70;;;;;;;4.26;87.39;101687.59;5068568;28;20044;-67
2021/11/12 06:25:00;;;;;;;48.42;24.05;;;;;;;4.28;87.59;101677.84;5057114;28;20409;-66
2021/11/12 06:27:27;;;;;;;49.75;24.20;;;;;;;4.25;87.48;101691.16;5037842;28;20445;-67
2021/11/12 06:29:54;;;;;;;48.00;24.80;;;;;;;4.21;87.74;101691.34;5054090;28;20124;-66
2021/11/12 06:32:21;;;;;;;57.25;25.40;;;;;;;4.33;87.78;101684.53;5053274;28;20044;-66
2021/11/12 06:34:48;;;;;;;54.55;25.50;;;;;;;4.34;87.30;101685.38;5071516;28;20052;-66
2021/11/12 06:37:16;;;;;;;47.33;24.33;;;;;;;4.46;86.97;101686.41;5074929;28;20045;-66
2021/11/12 06:39:43;;;;;;;52.15;25.05;;;;;;;4.48;86.88;101682.78;5073657;28;20044;-66
2021/11/12 06:42:27;;;;;;;49.85;24.10;;;;;;;4.54;86.66;101673.66;5073566;28;20063;-66
2021/11/12 06:50:28;;;;;;;56.70;27.33;;;;;;;4.70;86.04;101655.19;5053404;28;20391;-66
2021/11/12 06:52:55;;;;;;;55.75;26.85;;;;;;;4.70;86.01;101649.94;5036895;28;20090;-66
2021/11/12 06:55:22;;;;;;;52.65;24.85;;;;;;;4.74;85.63;101640.91;5054243;28;20052;-66
2021/11/12 06:57:49;;;;;;;49.80;24.67;;;;;;;4.74;85.59;101654.91;5020467;28;20037;-66
2021/11/12 07:00:19;;;;;;;47.92;24.75;;;;;;;4.84;85.05;101646.44;5036854;28;20387;-66
2021/11/12 07:02:48;;;;;;;52.67;25.92;;;;;;;4.76;85.83;101645.13;5053599;28;20067;-67
2021/11/12 07:05:16;;;;;;;48.80;24.67;;;;;;;4.77;84.77;101651.25;5052426;28;20076;-66
2021/11/12 07:07:43;;;;;;;55.25;25.38;;;;;;;4.79;84.99;101647.59;5054526;28;20095;-66
2021/11/12 07:10:10;;;;;;;49.30;24.38;;;;;;;4.90;84.32;101646.91;5054401;28;20049;-67
2021/11/12 07:12:38;;;;;;;53.55;26.45;;;;;;;4.94;84.53;101658.09;5052802;28;20041;-66
2021/11/12 07:15:05;;;;;;;51.13;26.17;;;;;;;4.70;85.21;101668.34;5064611;28;20052;-67
2021/11/12 07:17:32;;;;;;;49.10;25.92;;;;;;;4.73;85.91;101657.63;5070470;28;20045;-66
2021/11/12 07:19:58;;;;;;;53.90;26.42;;;;;;;4.80;85.80;101661.56;5054244;28;20063;-66
2021/11/12 07:22:25;;;;;;;48.90;25.38;;;;;;;4.87;84.69;101662.88;5054234;28;20045;-66
2021/11/12 07:24:52;;;;;;;51.90;25.98;;;;;;;4.92;83.87;101668.69;5052567;28;20040;-66
2021/11/12 07:27:18;;;;;;;49.63;25.92;;;;;;;4.91;83.63;101663.53;5045788;28;20120;-66
2021/11/12 07:30:00;;;;;;;51.80;25.45;;;;;;;4.74;84.17;101652.28;5006610;28;20044;-68
2021/11/12 07:32:27;;;;;;;51.28;25.55;;;;;;;4.79;84.17;101646.75;5051205;28;20045;-66
2021/11/12 07:34:56;;;;;;;56.17;26.30;;;;;;;4.66;84.44;101640.53;5051886;28;20045;-66
2021/11/12 07:37:27;;;;;;;55.58;26.05;;;;;;;4.50;85.69;101632.75;5053414;28;20041;-66
2021/11/12 07:39:54;;;;;;;47.63;25.40;;;;;;;4.62;84.79;101624.13;5053798;28;20056;-66
2021/11/12 07:45:30;;;;;;;53.00;25.45;;;;;;;4.83;84.81;101629.84;5053291;28;20041;-67
2021/11/12 07:47:55;;;;;;;47.20;25.45;;;;;;;4.70;84.84;101634.16;5053095;28;20124;-66
2021/11/12 07:50:21;;;;;;;45.08;23.42;;;;;;;4.78;83.75;101650.31;5052355;28;20045;-66
2021/11/12 07:52:48;;;;;;;43.65;22.52;;;;;;;4.66;83.58;101641.41;5053302;28;20069;-66
2021/11/12 07:55:15;;;;;;;49.42;24.38;;;;;;;4.76;83.74;101641.66;5035536;28;20378;-66
2021/11/12 07:57:42;;;;;;;52.05;25.35;;;;;;;4.46;84.63;101631.22;5063491;28;20119;-66
2021/11/12 08:00:09;;;;;;;53.08;25.60;;;;;;;4.41;85.06;101634.16;5065789;28;20045;-66
2021/11/12 08:02:40;;;;;;;49.42;23.42;;;;;;;4.44;85.18;101641.84;5052865;28;20425;-66
2021/11/12 08:05:15;;;;;;;49.20;23.70;;;;;;;4.52;85.53;101629.09;5098835;28;20441;-66
2021/11/12 08:07:42;;;;;;;51.38;24.30;;;;;;;4.55;85.26;101628.06;5073556;28;20559;-66
2021/11/12 08:10:12;;;;;;;47.45;23.40;;;;;;;4.77;84.14;101631.06;5072048;28;20044;-66
2021/11/12 08:12:42;;;;;;;45.15;23.27;;;;;;;4.74;84.27;101612.00;5072933;28;20048;-66
2021/11/12 08:15:28;;;;;;;48.25;24.92;;;;;;;4.71;84.30;101610.44;5072916;28;20067;-66
2021/11/12 08:18:09;;;;;;;48.83;24.08;;;;;;;4.76;84.34;101608.31;5066076;28;20045;-66
2021/11/12 08:20:40;;;;;;;46.87;22.60;;;;;;;4.76;84.07;101603.06;5043861;28;20036;-66
2021/11/12 08:24:18;;;;;;;50.25;24.10;;;;;;;4.75;84.24;101609.28;5036544;28;20076;-66
2021/11/12 08:26:09;;;;;;;48.78;21.95;;;;;;;4.95;83.71;101617.72;5054247;28;20561;-66
2021/11/12 08:34:31;;;;;;;45.33;22.60;;;;;;;4.93;82.54;101630.97;5069274;27;20444;-65
2021/11/12 08:37:09;;;;;;;46.28;22.67;;;;;;;4.89;83.02;101642.59;5050233;28;20095;-65
2021/11/12 08:42:30;;;;;;;46.00;24.27;;;;;;;5.03;81.73;101644.38;5044869;28;20047;-65
2021/11/12 08:45:03;;;;;;;51.38;25.08;;;;;;;5.06;81.97;101654.72;5066574;28;20391;-65
2021/11/12 08:47:33;;;;;;;52.58;26.08;;;;;;;5.09;82.30;101648.41;5074774;28;20040;-65
2021/11/12 08:50:01;;;;;;;56.55;25.20;;;;;;;5.10;82.34;101642.22;5055724;28;20045;-65
2021/11/12 08:52:27;;;;;;;54.38;27.05;;;;;;;4.97;82.32;101642.13;5063663;28;20059;-65
2021/11/12 08:54:54;;;;;;;54.63;27.20;;;;;;;4.88;81.98;101635.66;5072603;28;20406;-65
2021/11/12 08:57:21;;;;;;;57.28;25.90;;;;;;;4.87;81.96;101628.69;5061680;28;20128;-65
2021/11/12 08:59:50;;;;;;;55.40;25.40;;;;;;;4.98;81.98;101621.00;5065768;28;20044;-65
2021/11/12 09:02:23;;;;;;;50.92;25.48;;;;;;;5.09;81.83;101624.72;5060546;28;20040;-65
2021/11/12 09:04:50;;;;;;;57.38;27.77;;;;;;;5.26;80.40;101621.06;5055807;28;20076;-66
2021/11/12 09:07:18;;;;;;;56.78;29.30;;;;;;;5.19;81.55;101610.91;5059111;28;20094;-66
2021/11/12 09:09:49;;;;;;;58.90;28.40;;;;;;;5.07;81.62;101618.72;5078341;28;20183;-66
2021/11/12 09:12:15;;;;;;;61.25;28.88;;;;;;;5.10;81.47;101615.91;5066528;28;20041;-65
2021/11/12 09:14:47;;;;;;;62.20;29.95;;;;;;;4.97;81.77;101621.94;5064536;28;20037;-66
2021/11/12 09:17:16;;;;;;;66.50;32.10;;;;;;;5.17;81.67;101638.25;5061844;28;20375;-66
2021/11/12 09:19:46;;;;;;;63.85;31.83;;;;;;;5.29;80.22;101629.56;5064491;28;20071;-66
2021/11/12 09:22:16;;;;;;;62.40;30.38;;;;;;;5.32;80.86;101631.16;5058384;28;20045;-65
2021/11/12 09:24:43;;;;;;;54.53;29.30;;;;;;;5.36;80.29;101622.13;5045965;28;20397;-65
2021/11/12 09:27:11;;;;;;;56.15;29.25;;;;;;;5.46;80.53;101625.88;5056632;28;20610;-65
2021/11/12 09:29:38;;;;;;;62.33;30.52;;;;;;;5.34;80.64;101627.50;5064474;28;20048;-65
2021/11/12 09:32:08;;;;;;;59.03;30.30;;;;;;;5.30;79.95;101618.09;5068795;28;20048;-66
2021/11/12 09:34:37;;;;;;;59.30;30.25;;;;;;;5.37;80.58;101613.31;5066338;28;20101;-65
2021/11/12 09:37:08;;;;;;;64.60;33.60;;;;;;;5.36;79.06;101608.97;5079385;28;20036;-65
2021/11/12 09:39:36;;;;;;;61.67;32.75;;;;;;;5.40;79.66;101615.72;5053297;28;20580;-66
2021/11/12 09:42:04;;;;;;;66.88;31.17;;;;;;;5.57;79.36;101618.13;5067820;28;20040;-66
2021/11/12 09:44:31;;;;;;;69.10;33.67;;;;;;;5.47;78.77;101614.38;5052429;28;20041;-66
2021/11/12 09:46:58;;;;;;;63.60;31.23;;;;;;;5.50;79.58;101608.94;5051943;28;20041;-66
2021/11/12 09:49:27;;;;;;;65.82;33.28;;;;;;;5.61;78.79;101597.69;5064000;28;20047;-66
2021/11/12 09:51:59;;;;;;;72.18;33.20;;;;;;;5.77;78.42;101582.56;5036937;28;20098;-66
2021/11/12 09:54:28;;;;;;;64.03;32.42;;;;;;;5.81;77.91;101567.41;5039709;28;20904;-66
2021/11/12 09:56:55;;;;;;;65.47;30.00;;;;;;;5.87;77.66;101559.09;5069604;28;20633;-66
2021/11/12 09:59:21;;;;;;;62.75;32.20;;;;;;;5.91;78.47;101555.31;5051770;28;20055;-66
2021/11/12 10:01:48;;;;;;;63.03;31.85;;;;;;;5.94;77.52;101549.00;5059420;28;20128;-66
2021/11/12 10:04:15;;;;;;;61.83;33.47;;;;;;;6.10;77.74;101541.75;5050898;28;20131;-66
2021/11/12 10:06:43;;;;;;;60.33;33.70;;;;;;;6.05;76.99;101540.41;5040851;28;20044;-66
2021/11/12 10:09:16;;;;;;;65.15;33.45;;;;;;;6.03;76.86;101526.50;5047780;28;20116;-66
2021/11/12 10:11:49;;;;;;;56.72;30.35;;;;;;;6.17;76.40;101517.63;5061314;28;20051;-66
2021/11/12 10:14:25;;;;;;;55.92;28.85;;;;;;;6.18;75.46;101511.41;5066919;28;20076;-66
2021/11/12 10:16:56;;;;;;;51.72;27.50;;;;;;;6.45;75.50;101514.75;5071476;28;20045;-66
2021/11/12 10:19:25;;;;;;;51.95;25.35;;;;;;;6.61;75.33;101516.31;5070597;28;20072;-66
2021/11/12 10:21:56;;;;;;;47.60;24.85;;;;;;;6.58;75.76;101503.34;5073147;28;20089;-66
2021/11/12 10:24:30;;;;;;;48.08;23.40;;;;;;;6.78;75.31;101491.34;5069354;28;20052;-66
2021/11/12 10:27:01;;;;;;;44.08;22.63;;;;;;;7.04;74.58;101497.34;5066034;28;20474;-66
2021/11/12 10:29:32;;;;;;;42.45;22.23;;;;;;;6.88;75.10;101505.56;5070626;28;20048;-66
2021/11/12 10:32:02;;;;;;;48.05;23.13;;;;;;;6.97;74.92;101509.31;5060176;28;20497;-67
2021/11/12 10:34:33;;;;;;;46.33;25.08;;;;;;;6.95;74.50;101504.19;5051691;28;20029;-66
2021/11/12 10:37:04;;;;;;;44.10;24.15;;;;;;;6.89;74.46;101496.69;5067258;28;20043;-66
2021/11/12 10:39:39;;;;;;;46.85;25.05;;;;;;;6.85;74.92;101492.59;5082241;28;20048;-66
2021/11/12 10:44:57;;;;;;;44.42;22.90;;;;;;;6.68;74.86;101504.38;5106541;27;20417;-67
2021/11/12 10:47:26;;;;;;;44.92;23.10;;;;;;;6.84;73.61;101494.41;5105972;28;20044;-67
2021/11/12 10:50:10;;;;;;;42.08;22.75;;;;;;;6.84;74.00;101481.22;5085367;28;20039;-66
2021/11/12 10:52:38;;;;;;;53.03;22.95;;;;;;;6.69;74.24;101467.34;5102077;28;20072;-67
2021/11/12 10:55:10;;;;;;;40.65;23.25;;;;;;;6.84;73.42;101470.66;5082695;28;20048;-66
2021/11/12 10:57:55;;;;;;;44.60;23.15;;;;;;;8.03;70.29;101467.03;5082374;28;20606;-67
2021/11/12 11:00:31;;;;;;;41.15;22.73;;;;;;;8.64;67.88;101462.19;5077909;28;20048;-67
2021/11/12 11:03:01;;;;;;;45.60;22.90;;;;;;;9.08;66.66;101459.53;5101816;28;20036;-67
2021/11/12 11:05:31;;;;;;;42.00;22.10;;;;;;;10.40;61.73;101466.00;5102609;28;20168;-67
2021/11/12 11:08:05;;;;;;;40.83;23.27;;;;;;;10.26;62.15;101466.34;5103992;28;20126;-67
2021/11/12 11:10:34;;;;;;;43.47;21.65;;;;;;;11.14;59.92;101470.03;5092403;28;20040;-67
2021/11/12 11:13:09;;;;;;;37.53;21.30;;;;;;;10.52;60.64;101464.94;5098751;28;20058;-67
2021/11/12 11:18:29;;;;;;;37.67;20.63;;;;;;;13.28;52.81;101462.09;5061212;28;20443;-67
2021/11/12 11:24:05;;;;;;;32.22;20.67;;;;;;;14.15;50.00;101445.19;5071051;28;20394;-67
2021/11/12 11:26:48;;;;;;;34.33;19.92;;;;;;;14.48;48.49;101452.44;5060123;28;20512;-66
2021/11/12 11:29:20;;;;;;;38.55;19.52;;;;;;;14.76;48.17;101445.03;5064042;28;20508;-66
2021/11/12 11:31:47;;;;;;;38.45;20.77;;;;;;;14.48;48.52;101439.94;5046631;28;20045;-66
2021/11/12 11:34:14;;;;;;;31.27;19.25;;;;;;;15.59;46.00;101435.16;5052314;28;20095;-66
2021/11/12 11:36:45;;;;;;;33.60;19.70;;;;;;;15.77;45.11;101424.28;5045934;28;20383;-66
2021/11/12 11:39:15;;;;;;;33.20;19.65;;;;;;;15.81;44.90;101423.78;5062973;28;20077;-66
2021/11/12 11:41:44;;;;;;;32.45;18.88;;;;;;;15.61;45.56;101422.47;5051334;28;20131;-66
2021/11/12 11:44:17;;;;;;;36.65;20.48;;;;;;;15.09;46.47;101405.81;5063933;28;20439;-66
2021/11/12 11:46:48;;;;;;;32.67;19.42;;;;;;;14.10;48.43;101396.78;5048903;28;20086;-66
2021/11/12 11:49:18;;;;;;;39.17;20.30;;;;;;;13.49;50.90;101392.50;5060245;28;20053;-66
2021/11/12 11:51:56;;;;;;;37.78;20.33;;;;;;;12.58;53.59;101402.38;5046619;28;20052;-66
2021/11/12 11:54:25;;;;;;;34.72;20.33;;;;;;;12.63;52.79;101397.44;5059459;28;20049;-66
2021/11/12 11:56:55;;;;;;;38.10;22.15;;;;;;;11.80;54.90;101393.97;5053184;28;20060;-66
2021/11/12 11:59:35;;;;;;;38.15;20.42;;;;;;;12.14;54.79;101396.09;5090976;28;20040;-66
2021/11/12 12:02:10;;;;;;;37.05;20.48;;;;;;;12.04;54.97;101390.81;5055988;28;20057;-66
2021/11/12 12:04:40;;;;;;;38.03;21.73;;;;;;;12.34;53.96;101391.50;5045328;28;20037;-68
2021/11/12 12:07:15;;;;;;;43.30;21.65;;;;;;;12.18;55.10;101379.66;5045931;28;20076;-66
2021/11/12 12:12:37;;;;;;;36.00;21.42;;;;;;;12.81;53.62;101375.31;5036997;28;20384;-67
2021/11/12 12:17:43;;;;;;;36.08;20.65;;;;;;;14.31;48.84;101363.50;5091425;28;20196;-68
2021/11/12 12:35:17;;;;;;;33.00;19.73;;;;;;;14.01;49.13;101357.75;5082462;28;20051;-67
2021/11/12 12:38:38;;;;;;;32.63;18.80;;;;;;;14.78;47.24;101350.41;5082379;28;20059;-67
2021/11/12 13:20:27;;;;;;;37.13;21.23;;;;;;;11.98;55.17;101298.34;5073752;28;20417;-66
2021/11/12 13:25:45;;;;;;;36.63;20.73;;;;;;;11.62;56.62;101292.91;5121481;27;20437;-66
2021/11/12 13:28:19;;;;;;;40.90;22.45;;;;;;;11.43;57.14;101275.25;5099300;28;20081;-66
2021/11/12 13:30:50;;;;;;;38.60;21.08;;;;;;;11.38;57.77;101272.19;5069976;28;20041;-67
2021/11/12 13:33:37;;;;;;;;;;;;;;;11.00;57.81;101266.03;5087756;28;20043;-66
2021/11/12 13:38:52;;;;;;;36.00;20.15;;;;;;;10.58;60.18;101253.94;5126479;27;20185;-67
2021/11/12 13:41:29;;;;;;;38.22;20.63;;;;;;;10.48;60.58;101247.84;5121388;28;20039;-67
2021/11/12 13:44:01;;;;;;;36.75;20.40;;;;;;;10.22;60.43;101256.28;5110861;28;20062;-68
2021/11/12 13:46:42;;;;;;;36.95;21.08;;;;;;;10.11;61.12;101265.22;5113339;28;20131;-67
2021/11/12 13:49:09;;;;;;;39.87;21.47;;;;;;;10.44;60.02;101259.69;5111211;28;20500;-67
2021/11/12 13:51:36;;;;;;;38.85;20.98;;;;;;;10.24;60.99;101261.47;5098629;28;20039;-67
2021/11/12 13:54:05;;;;;;;38.67;20.55;;;;;;;10.29;61.05;101254.75;5109575;28;20122;-67
2021/11/12 13:56:34;;;;;;;41.28;20.45;;;;;;;10.46;61.08;101255.06;5087557;28;20047;-67
2021/11/12 13:59:12;;;;;;;43.42;19.67;;;;;;;10.49;61.06;101246.84;5091257;28;20036;-67
2021/11/12 14:01:39;;;;;;;37.17;20.45;;;;;;;10.32;61.19;101245.75;5110370;28;20446;-67
2021/11/12 14:04:29;;;;;;;37.63;21.25;;;;;;;10.29;61.63;101249.47;5087856;28;20043;-66
2021/11/12 14:06:57;;;;;;;38.25;20.13;;;;;;;10.31;61.86;101238.75;5104262;28;20149;-66
2021/11/12 14:09:33;;;;;;;36.65;19.80;;;;;;;10.26;60.78;101235.63;5102704;28;20033;-66
2021/11/12 14:12:08;;;;;;;40.60;20.27;;;;;;;10.31;61.24;101239.56;5089161;28;20111;-66
2021/11/12 14:14:38;;;;;;;35.25;20.17;;;;;;;10.17;62.16;101232.88;5111190;28;20046;-66
2021/11/12 14:17:27;;;;;;;35.53;19.58;;;;;;;10.17;61.58;101224.91;5096983;28;20051;-66
2021/11/12 14:20:31;;;;;;;44.92;20.02;;;;;;;10.05;62.36;101214.59;5102677;28;20036;-67
2021/11/12 14:23:15;;;;;;;43.17;20.42;;;;;;;9.95;62.63;101215.41;5095561;28;20046;-67
2021/11/12 14:28:53;;;;;;;37.05;19.85;;;;;;;9.55;63.47;101212.81;5104954;28;20036;-69
2021/11/12 14:34:52;;;;;;;37.92;19.25;;;;;;;9.42;64.11;101194.53;5096486;28;20040;-67
2021/11/12 14:37:20;;;;;;;38.95;19.15;;;;;;;9.60;63.09;101192.06;5100086;28;20048;-68
2021/11/12 14:40:07;;;;;;;34.88;18.25;;;;;;;9.60;63.25;101184.97;5087687;28;20041;-67
2021/11/12 14:42:49;;;;;;;35.03;19.30;;;;;;;9.55;63.75;101179.25;5078542;28;20127;-67
2021/11/12 14:45:35;;;;;;;36.85;20.38;;;;;;;9.50;64.47;101178.81;5092983;28;20219;-67
2021/11/12 14:48:23;;;;;;;35.78;19.63;;;;;;;9.37;63.94;101170.28;5093730;28;20040;-67
2021/11/12 14:51:03;;;;;;;35.97;19.95;;;;;;;9.41;63.58;101172.53;5077202;28;20044;-67
2021/11/12 14:56:26;;;;;;;36.92;19.77;;;;;;;9.22;64.08;101170.69;5062815;28;20082;-67
2021/11/12 14:59:00;;;;;;;38.95;19.35;;;;;;;9.05;65.10;101159.88;5072726;28;20068;-67
2021/11/12 15:01:31;;;;;;;34.13;18.52;;;;;;;9.13;64.01;101158.25;5086210;28;20044;-67
2021/11/12 15:03:59;;;;;;;35.75;19.35;;;;;;;9.18;64.17;101155.19;5059999;28;20038;-67
2021/11/12 15:06:34;;;;;;;36.22;19.20;;;;;;;9.18;64.13;101149.88;5074970;28;20402;-67
2021/11/12 15:11:49;;;;;;;38.15;21.10;;;;;;;8.92;64.95;101149.53;5111850;27;20444;-68
2021/11/12 15:14:26;;;;;;;52.13;24.00;;;;;;;8.92;65.45;101152.19;5071746;28;20491;-67
2021/11/12 15:17:04;;;;;;;35.15;19.55;;;;;;;8.78;66.35;101148.91;5096688;28;20553;-67
2021/11/12 15:19:34;;;;;;;35.35;19.10;;;;;;;8.74;66.38;101149.31;5105863;28;20065;-68
2021/11/12 15:30:22;;;;;;;36.58;18.98;;;;;;;8.63;67.16;101143.13;5131797;27;20354;-68
2021/11/12 15:32:54;;;;;;;36.83;19.38;;;;;;;8.40;67.78;101139.78;5106784;28;20123;-67
2021/11/12 15:35:25;;;;;;;36.08;19.58;;;;;;;8.48;67.96;101138.31;5096781;28;20412;-68
2021/11/12 15:40:41;;;;;;;41.17;19.42;;;;;;;8.34;68.60;101150.88;5107297;28;20524;-68
2021/11/12 15:45:54;;;;;;;33.78;18.27;;;;;;;8.30;68.78;101141.53;5074094;27;20397;-65
2021/11/12 15:48:22;;;;;;;;;;;;;;;8.33;68.88;101145.69;5071550;28;20044;-65
2021/11/12 15:53:38;;;;;;;36.95;18.20;;;;;;;8.16;69.26;101147.13;5077156;28;20049;-67
2021/11/12 15:56:31;;;;;;;34.03;18.90;;;;;;;8.23;68.90;101153.56;5072532;28;20070;-66
2021/11/12 16:07:28;;;;;;;35.00;17.67;;;;;;;7.93;69.89;101144.59;5067909;28;20033;-66
2021/11/12 16:15:39;;;;;;;33.33;17.65;;;;;;;7.84;70.00;101135.63;5066230;28;20547;-67
2021/11/12 16:26:20;;;;;;;36.25;18.27;;;;;;;7.60;70.59;101138.47;5068980;27;20904;-66
2021/11/12 16:29:16;;;;;;;37.08;17.80;;;;;;;7.68;69.52;101143.13;5033864;28;20076;-67
2021/11/12 16:31:38;;;;;;;30.42;17.17;;;;;;;7.67;69.81;101134.34;5054617;28;20040;-68
2021/11/12 16:34:12;;;;;;;35.60;17.15;;;;;;;7.76;69.27;101129.28;5054266;28;20509;-68
2021/11/12 16:36:44;;;;;;;36.15;18.30;;;;;;;7.60;69.76;101129.72;5086554;28;20116;-67
2021/11/12 16:39:14;;;;;;;38.70;19.00;;;;;;;7.42;69.83;101121.47;5063193;28;20044;-68
2021/11/12 16:41:55;;;;;;;33.17;18.17;;;;;;;7.45;70.44;101132.63;5059998;28;20045;-67
2021/11/12 16:47:23;;;;;;;36.78;18.55;;;;;;;7.35;70.84;101122.94;5056773;28;20044;-68
2021/11/12 16:52:49;;;;;;;32.55;17.55;;;;;;;7.41;70.48;101125.94;5052428;28;20545;-67
2021/11/12 16:55:37;;;;;;;38.15;19.58;;;;;;;7.34;71.63;101118.63;5067846;28;20204;-68
2021/11/12 16:58:20;;;;;;;33.20;17.92;;;;;;;7.29;71.66;101105.78;5049186;28;20044;-67